sensor_id;sensor_type;location;lat;lon;timestamp;pressure;altitude;pressure_sealevel;temperature;humidity
11077;BME280;5591;42.626;23.380;2024-03-02T00:00:49;93624.41;;;11.37;100.00
11077;BME280;5591;42.626;23.380;2024-03-02T00:03:15;93616.16;;;11.27;100.00
11077;BME280;5591;42.626;23.380;2024-03-02T00:05:42;93622.09;;;11.60;100.00
11077;BME280;5591;42.626;23.380;2024-03-02T00:08:10;93617.72;;;11.85;100.00
11077;BME280;5591;42.626;23.380;2024-03-02T00:10:39;93611.41;;;11.55;100.00
11077;BME280;5591;42.626;23.380;2024-03-02T00:13:06;93625.53;;;11.67;100.00
11077;BME280;5591;42.626;23.380;2024-03-02T00:15:43;93608.38;;;11.52;100.00
11077;BME280;5591;42.626;23.380;2024-03-02T00:18:13;93617.94;;;11.40;100.00
11077;BME280;5591;42.626;23.380;2024-03-02T00:20:41;93593.38;;;11.08;100.00
11077;BME280;5591;42.626;23.380;2024-03-02T00:23:08;93581.91;;;11.47;100.00
11077;BME280;5591;42.626;23.380;2024-03-02T00:25:41;93598.56;;;11.78;100.00
11077;BME280;5591;42.626;23.380;2024-03-02T00:28:14;93595.38;;;11.70;100.00
11077;BME280;5591;42.626;23.380;2024-03-02T00:30:51;93560.34;;;11.38;100.00
11077;BME280;5591;42.626;23.380;2024-03-02T00:33:19;93603.22;;;11.76;100.00
11077;BME280;5591;42.626;23.380;2024-03-02T00:35:47;93593.91;;;11.80;100.00
11077;BME280;5591;42.626;23.380;2024-03-02T00:38:15;93595.09;;;11.34;100.00
11077;BME280;5591;42.626;23.380;2024-03-02T00:40:44;93618.25;;;11.63;100.00
11077;BME280;5591;42.626;23.380;2024-03-02T00:43:31;93600.97;;;11.29;100.00
11077;BME280;5591;42.626;23.380;2024-03-02T00:46:05;93591.97;;;11.63;100.00
11077;BME280;5591;42.626;23.380;2024-03-02T00:48:32;93580.97;;;11.79;100.00
11077;BME280;5591;42.626;23.380;2024-03-02T00:51:01;93591.28;;;11.80;100.00
11077;BME280;5591;42.626;23.380;2024-03-02T00:53:29;93587.81;;;11.80;100.00
11077;BME280;5591;42.626;23.380;2024-03-02T00:55:58;93584.44;;;11.29;100.00
11077;BME280;5591;42.626;23.380;2024-03-02T00:58:25;93576.69;;;11.40;100.00
11077;BME280;5591;42.626;23.380;2024-03-02T01:00:51;93584.84;;;11.70;100.00
11077;BME280;5591;42.626;23.380;2024-03-02T01:03:18;93583.78;;;11.84;100.00
11077;BME280;5591;42.626;23.380;2024-03-02T01:05:45;93581.50;;;11.43;100.00
11077;BME280;5591;42.626;23.380;2024-03-02T01:08:12;93583.06;;;11.64;100.00
11077;BME280;5591;42.626;23.380;2024-03-02T01:10:39;93582.63;;;11.73;100.00
11077;BME280;5591;42.626;23.380;2024-03-02T01:13:07;93572.34;;;11.15;100.00
11077;BME280;5591;42.626;23.380;2024-03-02T01:15:34;93569.16;;;11.06;100.00
11077;BME280;5591;42.626;23.380;2024-03-02T01:18:00;93562.75;;;11.33;100.00
11077;BME280;5591;42.626;23.380;2024-03-02T01:20:27;93573.41;;;11.51;100.00
11077;BME280;5591;42.626;23.380;2024-03-02T01:22:54;93575.06;;;11.83;100.00
11077;BME280;5591;42.626;23.380;2024-03-02T01:25:20;93573.78;;;11.55;100.00
11077;BME280;5591;42.626;23.380;2024-03-02T01:27:47;93573.91;;;11.79;100.00
11077;BME280;5591;42.626;23.380;2024-03-02T01:30:15;93562.94;;;11.82;100.00
11077;BME280;5591;42.626;23.380;2024-03-02T01:32:42;93576.81;;;11.96;100.00
11077;BME280;5591;42.626;23.380;2024-03-02T01:35:09;93569.47;;;12.04;100.00
11077;BME280;5591;42.626;23.380;2024-03-02T01:37:36;93571.81;;;11.88;100.00
11077;BME280;5591;42.626;23.380;2024-03-02T01:40:03;93572.91;;;11.74;100.00
11077;BME280;5591;42.626;23.380;2024-03-02T01:42:35;93555.97;;;11.63;100.00
11077;BME280;5591;42.626;23.380;2024-03-02T01:45:02;93565.13;;;11.61;100.00
11077;BME280;5591;42.626;23.380;2024-03-02T01:47:30;93557.88;;;11.43;100.00
11077;BME280;5591;42.626;23.380;2024-03-02T01:49:58;93553.22;;;11.89;100.00
11077;BME280;5591;42.626;23.380;2024-03-02T01:52:25;93554.81;;;11.59;100.00
11077;BME280;5591;42.626;23.380;2024-03-02T01:54:51;93560.19;;;11.71;100.00
11077;BME280;5591;42.626;23.380;2024-03-02T01:57:18;93553.63;;;11.42;100.00
11077;BME280;5591;42.626;23.380;2024-03-02T01:59:45;93550.44;;;11.34;100.00
11077;BME280;5591;42.626;23.380;2024-03-02T02:02:13;93551.59;;;11.57;100.00
11077;BME280;5591;42.626;23.380;2024-03-02T02:04:41;93555.00;;;11.51;100.00
11077;BME280;5591;42.626;23.380;2024-03-02T02:07:07;93548.66;;;11.28;100.00
11077;BME280;5591;42.626;23.380;2024-03-02T02:09:34;93550.53;;;11.14;100.00
11077;BME280;5591;42.626;23.380;2024-03-02T02:12:02;93545.09;;;11.53;100.00
11077;BME280;5591;42.626;23.380;2024-03-02T02:14:31;93555.81;;;11.52;100.00
11077;BME280;5591;42.626;23.380;2024-03-02T02:16:58;93544.09;;;11.48;100.00
11077;BME280;5591;42.626;23.380;2024-03-02T02:19:25;93547.03;;;11.27;100.00
11077;BME280;5591;42.626;23.380;2024-03-02T02:21:53;93540.88;;;11.46;100.00
11077;BME280;5591;42.626;23.380;2024-03-02T02:24:19;93539.19;;;11.64;100.00
11077;BME280;5591;42.626;23.380;2024-03-02T02:26:46;93549.13;;;11.62;100.00
11077;BME280;5591;42.626;23.380;2024-03-02T02:29:13;93540.78;;;11.72;100.00
11077;BME280;5591;42.626;23.380;2024-03-02T02:31:40;93540.25;;;11.57;100.00
11077;BME280;5591;42.626;23.380;2024-03-02T02:34:07;93549.75;;;11.58;100.00
11077;BME280;5591;42.626;23.380;2024-03-02T02:36:37;93534.53;;;11.22;100.00
11077;BME280;5591;42.626;23.380;2024-03-02T02:39:07;93544.88;;;11.61;100.00
11077;BME280;5591;42.626;23.380;2024-03-02T02:41:36;93570.38;;;11.48;100.00
11077;BME280;5591;42.626;23.380;2024-03-02T02:44:02;93549.81;;;11.82;100.00
11077;BME280;5591;42.626;23.380;2024-03-02T02:46:29;93542.03;;;11.63;100.00
11077;BME280;5591;42.626;23.380;2024-03-02T02:48:56;93543.78;;;11.75;100.00
11077;BME280;5591;42.626;23.380;2024-03-02T02:51:22;93549.75;;;11.58;100.00
11077;BME280;5591;42.626;23.380;2024-03-02T02:53:50;93540.25;;;11.57;100.00
11077;BME280;5591;42.626;23.380;2024-03-02T02:56:18;93486.16;;;11.05;100.00
11077;BME280;5591;42.626;23.380;2024-03-02T02:58:45;93553.53;;;11.99;100.00
11077;BME280;5591;42.626;23.380;2024-03-02T03:01:12;93539.38;;;11.69;100.00
11077;BME280;5591;42.626;23.380;2024-03-02T03:03:38;93552.63;;;12.12;100.00
11077;BME280;5591;42.626;23.380;2024-03-02T03:06:06;93550.97;;;11.93;100.00
11077;BME280;5591;42.626;23.380;2024-03-02T03:08:32;93548.31;;;11.62;100.00
11077;BME280;5591;42.626;23.380;2024-03-02T03:10:59;93545.69;;;11.62;100.00
11077;BME280;5591;42.626;23.380;2024-03-02T03:13:27;93541.47;;;11.61;100.00
11077;BME280;5591;42.626;23.380;2024-03-02T03:15:54;93543.06;;;11.62;100.00
11077;BME280;5591;42.626;23.380;2024-03-02T03:18:20;93550.00;;;11.43;100.00
11077;BME280;5591;42.626;23.380;2024-03-02T03:20:47;93541.28;;;11.87;100.00
11077;BME280;5591;42.626;23.380;2024-03-02T03:23:14;93544.09;;;11.48;100.00
11077;BME280;5591;42.626;23.380;2024-03-02T03:25:42;93542.38;;;11.35;100.00
11077;BME280;5591;42.626;23.380;2024-03-02T03:28:09;93538.34;;;10.69;100.00
11077;BME280;5591;42.626;23.380;2024-03-02T03:30:37;93537.13;;;10.78;100.00
11077;BME280;5591;42.626;23.380;2024-03-02T03:33:04;93536.72;;;10.81;100.00
11077;BME280;5591;42.626;23.380;2024-03-02T03:35:31;93525.44;;;10.74;100.00
11077;BME280;5591;42.626;23.380;2024-03-02T03:37:58;93536.91;;;10.80;100.00
11077;BME280;5591;42.626;23.380;2024-03-02T03:40:25;93533.75;;;10.65;100.00
11077;BME280;5591;42.626;23.380;2024-03-02T03:42:52;93532.06;;;11.34;100.00
11077;BME280;5591;42.626;23.380;2024-03-02T03:45:19;93529.84;;;10.87;100.00
11077;BME280;5591;42.626;23.380;2024-03-02T03:47:47;93523.47;;;10.57;100.00
11077;BME280;5591;42.626;23.380;2024-03-02T03:50:14;93524.97;;;10.97;100.00
11077;BME280;5591;42.626;23.380;2024-03-02T03:52:41;93525.66;;;11.23;100.00
11077;BME280;5591;42.626;23.380;2024-03-02T03:55:09;93534.81;;;11.01;100.00
11077;BME280;5591;42.626;23.380;2024-03-02T03:57:35;93528.22;;;10.86;100.00
11077;BME280;5591;42.626;23.380;2024-03-02T04:00:03;93520.34;;;10.92;100.00
11077;BME280;5591;42.626;23.380;2024-03-02T04:02:29;93527.50;;;11.16;100.00
11077;BME280;5591;42.626;23.380;2024-03-02T04:04:57;93528.81;;;11.38;100.00
11077;BME280;5591;42.626;23.380;2024-03-02T04:07:24;93531.22;;;11.40;100.00
11077;BME280;5591;42.626;23.380;2024-03-02T04:09:51;93533.97;;;11.58;100.00
11077;BME280;5591;42.626;23.380;2024-03-02T04:12:17;93537.84;;;11.05;100.00
11077;BME280;5591;42.626;23.380;2024-03-02T04:14:44;93531.38;;;11.07;100.00
11077;BME280;5591;42.626;23.380;2024-03-02T04:17:11;93529.69;;;11.19;100.00
11077;BME280;5591;42.626;23.380;2024-03-02T04:19:38;93543.00;;;11.31;100.00
11077;BME280;5591;42.626;23.380;2024-03-02T04:22:06;93531.63;;;11.37;100.00
11077;BME280;5591;42.626;23.380;2024-03-02T04:24:33;93541.81;;;11.64;100.00
11077;BME280;5591;42.626;23.380;2024-03-02T04:26:59;93546.00;;;11.78;100.00
11077;BME280;5591;42.626;23.380;2024-03-02T04:29:27;93539.38;;;12.00;100.00
11077;BME280;5591;42.626;23.380;2024-03-02T04:31:54;93559.53;;;11.75;100.00
11077;BME280;5591;42.626;23.380;2024-03-02T04:34:21;93554.16;;;11.64;100.00
11077;BME280;5591;42.626;23.380;2024-03-02T04:36:47;93569.47;;;11.73;100.00
11077;BME280;5591;42.626;23.380;2024-03-02T04:39:16;93561.03;;;11.96;100.00
11077;BME280;5591;42.626;23.380;2024-03-02T04:41:43;93555.63;;;12.15;100.00
11077;BME280;5591;42.626;23.380;2024-03-02T04:44:10;93560.03;;;11.97;100.00
11077;BME280;5591;42.626;23.380;2024-03-02T04:46:36;93560.66;;;11.92;100.00
11077;BME280;5591;42.626;23.380;2024-03-02T04:49:03;93557.72;;;12.07;100.00
11077;BME280;5591;42.626;23.380;2024-03-02T04:51:30;93559.16;;;11.78;100.00
11077;BME280;5591;42.626;23.380;2024-03-02T04:53:56;93557.06;;;11.87;100.00
11077;BME280;5591;42.626;23.380;2024-03-02T04:56:24;93553.34;;;11.63;100.00
11077;BME280;5591;42.626;23.380;2024-03-02T04:59:09;93549.16;;;12.18;100.00
11077;BME280;5591;42.626;23.380;2024-03-02T05:01:36;93556.97;;;12.00;100.00
11077;BME280;5591;42.626;23.380;2024-03-02T05:04:03;93552.72;;;11.99;100.00
11077;BME280;5591;42.626;23.380;2024-03-02T05:06:30;93561.94;;;11.83;100.00
11077;BME280;5591;42.626;23.380;2024-03-02T05:08:56;93566.16;;;11.84;100.00
11077;BME280;5591;42.626;23.380;2024-03-02T05:11:24;93561.84;;;11.96;100.00
11077;BME280;5591;42.626;23.380;2024-03-02T05:14:08;93566.50;;;12.25;100.00
11077;BME280;5591;42.626;23.380;2024-03-02T05:16:35;93565.59;;;12.38;100.00
11077;BME280;5591;42.626;23.380;2024-03-02T05:19:03;93568.28;;;12.31;100.00
11077;BME280;5591;42.626;23.380;2024-03-02T05:21:31;93595.69;;;12.41;100.00
11077;BME280;5591;42.626;23.380;2024-03-02T05:23:58;93562.94;;;12.13;100.00
11077;BME280;5591;42.626;23.380;2024-03-02T05:26:27;93487.03;;;11.92;100.00
11077;BME280;5591;42.626;23.380;2024-03-02T05:28:53;93583.16;;;12.19;100.00
11077;BME280;5591;42.626;23.380;2024-03-02T05:31:20;93570.69;;;11.71;100.00
11077;BME280;5591;42.626;23.380;2024-03-02T05:33:46;93584.09;;;11.63;100.00
11077;BME280;5591;42.626;23.380;2024-03-02T05:36:13;93582.50;;;11.93;100.00
11077;BME280;5591;42.626;23.380;2024-03-02T05:38:40;93585.72;;;12.26;100.00
11077;BME280;5591;42.626;23.380;2024-03-02T05:41:06;93593.94;;;12.36;100.00
11077;BME280;5591;42.626;23.380;2024-03-02T05:43:34;93599.63;;;12.32;100.00
11077;BME280;5591;42.626;23.380;2024-03-02T05:46:01;93602.97;;;12.15;100.00
11077;BME280;5591;42.626;23.380;2024-03-02T05:48:28;93600.25;;;11.66;100.00
11077;BME280;5591;42.626;23.380;2024-03-02T05:50:55;93606.50;;;12.03;100.00
11077;BME280;5591;42.626;23.380;2024-03-02T05:53:21;93600.66;;;12.01;100.00
11077;BME280;5591;42.626;23.380;2024-03-02T05:55:48;93598.31;;;11.86;100.00
11077;BME280;5591;42.626;23.380;2024-03-02T05:58:18;93601.97;;;12.16;100.00
11077;BME280;5591;42.626;23.380;2024-03-02T06:00:58;93601.00;;;12.11;100.00
11077;BME280;5591;42.626;23.380;2024-03-02T06:03:24;93609.09;;;12.09;100.00
11077;BME280;5591;42.626;23.380;2024-03-02T06:05:51;93604.38;;;12.18;100.00
11077;BME280;5591;42.626;23.380;2024-03-02T06:08:18;93526.91;;;11.52;100.00
11077;BME280;5591;42.626;23.380;2024-03-02T06:10:44;93549.41;;;11.79;100.00
11077;BME280;5591;42.626;23.380;2024-03-02T06:13:12;93608.72;;;12.06;100.00
11077;BME280;5591;42.626;23.380;2024-03-02T06:15:38;93607.28;;;11.72;100.00
11077;BME280;5591;42.626;23.380;2024-03-02T06:18:06;93596.19;;;11.70;100.00
11077;BME280;5591;42.626;23.380;2024-03-02T06:20:33;93581.66;;;11.99;100.00
11077;BME280;5591;42.626;23.380;2024-03-02T06:23:00;93602.72;;;12.23;100.00
11077;BME280;5591;42.626;23.380;2024-03-02T06:25:27;93596.28;;;12.19;100.00
11077;BME280;5591;42.626;23.380;2024-03-02T06:27:54;93607.50;;;12.02;100.00
11077;BME280;5591;42.626;23.380;2024-03-02T06:30:20;93605.91;;;12.01;100.00
11077;BME280;5591;42.626;23.380;2024-03-02T06:32:47;93617.09;;;11.90;100.00
11077;BME280;5591;42.626;23.380;2024-03-02T06:35:15;93628.41;;;11.97;100.00
11077;BME280;5591;42.626;23.380;2024-03-02T06:37:42;93617.19;;;12.08;100.00
11077;BME280;5591;42.626;23.380;2024-03-02T06:40:09;93611.41;;;12.24;100.00
11077;BME280;5591;42.626;23.380;2024-03-02T06:42:36;93622.31;;;12.27;100.00
11077;BME280;5591;42.626;23.380;2024-03-02T06:45:03;93628.34;;;12.34;100.00
11077;BME280;5591;42.626;23.380;2024-03-02T06:47:30;93619.63;;;12.09;100.00
11077;BME280;5591;42.626;23.380;2024-03-02T06:49:56;93623.72;;;12.30;100.00
11077;BME280;5591;42.626;23.380;2024-03-02T06:52:25;93623.84;;;12.65;100.00
11077;BME280;5591;42.626;23.380;2024-03-02T06:54:52;93624.47;;;12.85;100.00
11077;BME280;5591;42.626;23.380;2024-03-02T06:57:18;93626.22;;;12.73;100.00
11077;BME280;5591;42.626;23.380;2024-03-02T06:59:46;93599.09;;;12.48;100.00
11077;BME280;5591;42.626;23.380;2024-03-02T07:02:15;93623.53;;;12.80;100.00
11077;BME280;5591;42.626;23.380;2024-03-02T07:04:42;93634.44;;;13.08;100.00
11077;BME280;5591;42.626;23.380;2024-03-02T07:07:10;93638.00;;;12.95;100.00
11077;BME280;5591;42.626;23.380;2024-03-02T07:09:38;93567.59;;;12.60;100.00
11077;BME280;5591;42.626;23.380;2024-03-02T07:12:05;93638.34;;;12.74;100.00
11077;BME280;5591;42.626;23.380;2024-03-02T07:14:32;93642.06;;;12.67;100.00
11077;BME280;5591;42.626;23.380;2024-03-02T07:17:12;93631.34;;;12.86;100.00
11077;BME280;5591;42.626;23.380;2024-03-02T07:19:39;93638.66;;;12.84;100.00
11077;BME280;5591;42.626;23.380;2024-03-02T07:22:06;93642.06;;;12.91;100.00
11077;BME280;5591;42.626;23.380;2024-03-02T07:24:40;93602.38;;;12.86;100.00
11077;BME280;5591;42.626;23.380;2024-03-02T07:27:08;93638.09;;;12.82;100.00
11077;BME280;5591;42.626;23.380;2024-03-02T07:29:36;93638.53;;;12.55;100.00
11077;BME280;5591;42.626;23.380;2024-03-02T07:32:03;93643.34;;;12.58;100.00
11077;BME280;5591;42.626;23.380;2024-03-02T07:34:29;93637.75;;;12.48;100.00
11077;BME280;5591;42.626;23.380;2024-03-02T07:36:56;93637.19;;;12.70;100.00
11077;BME280;5591;42.626;23.380;2024-03-02T07:39:23;93574.91;;;12.58;100.00
11077;BME280;5591;42.626;23.380;2024-03-02T07:41:52;93645.03;;;13.01;100.00
11077;BME280;5591;42.626;23.380;2024-03-02T07:44:19;93588.00;;;12.64;100.00
11077;BME280;5591;42.626;23.380;2024-03-02T07:46:46;93659.59;;;13.04;100.00
11077;BME280;5591;42.626;23.380;2024-03-02T07:49:13;93651.72;;;13.22;100.00
11077;BME280;5591;42.626;23.380;2024-03-02T07:51:40;93657.34;;;13.07;100.00
11077;BME280;5591;42.626;23.380;2024-03-02T07:54:07;93655.09;;;13.29;100.00
11077;BME280;5591;42.626;23.380;2024-03-02T07:56:34;93660.88;;;13.37;100.00
11077;BME280;5591;42.626;23.380;2024-03-02T07:59:02;93664.88;;;13.64;100.00
11077;BME280;5591;42.626;23.380;2024-03-02T08:01:29;93657.28;;;13.32;100.00
11077;BME280;5591;42.626;23.380;2024-03-02T08:03:56;93662.78;;;13.48;100.00
11077;BME280;5591;42.626;23.380;2024-03-02T08:06:24;93661.06;;;13.42;100.00
11077;BME280;5591;42.626;23.380;2024-03-02T08:08:53;93659.44;;;12.99;100.00
11077;BME280;5591;42.626;23.380;2024-03-02T08:11:20;93659.31;;;12.63;100.00
11077;BME280;5591;42.626;23.380;2024-03-02T08:13:47;93677.75;;;13.12;100.00
11077;BME280;5591;42.626;23.380;2024-03-02T08:16:15;93668.34;;;13.22;100.00
11077;BME280;5591;42.626;23.380;2024-03-02T08:18:45;93668.16;;;12.93;100.00
11077;BME280;5591;42.626;23.380;2024-03-02T08:21:12;93672.97;;;13.45;100.00
11077;BME280;5591;42.626;23.380;2024-03-02T08:23:39;93680.31;;;13.00;100.00
11077;BME280;5591;42.626;23.380;2024-03-02T08:26:07;93674.28;;;13.18;100.00
11077;BME280;5591;42.626;23.380;2024-03-02T08:28:34;93667.22;;;13.12;100.00
11077;BME280;5591;42.626;23.380;2024-03-02T08:31:02;93674.00;;;13.62;100.00
11077;BME280;5591;42.626;23.380;2024-03-02T08:33:30;93671.59;;;13.78;100.00
11077;BME280;5591;42.626;23.380;2024-03-02T08:35:57;93673.03;;;13.92;100.00
11077;BME280;5591;42.626;23.380;2024-03-02T08:38:23;93671.78;;;14.13;100.00
11077;BME280;5591;42.626;23.380;2024-03-02T08:40:50;93677.25;;;14.29;100.00
11077;BME280;5591;42.626;23.380;2024-03-02T08:43:17;93658.19;;;14.57;100.00
11077;BME280;5591;42.626;23.380;2024-03-02T08:45:44;93668.44;;;14.65;100.00
11077;BME280;5591;42.626;23.380;2024-03-02T08:48:12;93667.00;;;15.03;100.00
11077;BME280;5591;42.626;23.380;2024-03-02T08:50:40;93670.69;;;15.36;100.00
11077;BME280;5591;42.626;23.380;2024-03-02T08:53:07;93678.38;;;15.26;100.00
11077;BME280;5591;42.626;23.380;2024-03-02T08:55:34;93676.91;;;15.30;100.00
11077;BME280;5591;42.626;23.380;2024-03-02T08:58:01;93675.28;;;15.64;100.00
11077;BME280;5591;42.626;23.380;2024-03-02T09:00:27;93675.03;;;15.77;100.00
11077;BME280;5591;42.626;23.380;2024-03-02T09:02:54;93671.59;;;15.76;100.00
11077;BME280;5591;42.626;23.380;2024-03-02T09:05:21;93672.06;;;16.52;96.82
11077;BME280;5591;42.626;23.380;2024-03-02T19:38:20;93807.25;;;11.84;100.00
11077;BME280;5591;42.626;23.380;2024-03-02T19:40:49;93814.31;;;11.83;100.00
11077;BME280;5591;42.626;23.380;2024-03-02T19:43:16;93811.28;;;11.80;100.00
11077;BME280;5591;42.626;23.380;2024-03-02T19:45:43;93816.19;;;11.57;100.00
11077;BME280;5591;42.626;23.380;2024-03-02T19:48:10;93809.28;;;11.49;100.00
11077;BME280;5591;42.626;23.380;2024-03-02T19:50:37;93812.94;;;11.42;100.00
11077;BME280;5591;42.626;23.380;2024-03-02T19:53:05;93812.16;;;11.61;100.00
11077;BME280;5591;42.626;23.380;2024-03-02T19:55:33;93810.72;;;11.58;100.00
11077;BME280;5591;42.626;23.380;2024-03-02T19:58:01;93809.28;;;11.69;100.00
11077;BME280;5591;42.626;23.380;2024-03-02T20:00:28;93812.72;;;11.76;100.00
11077;BME280;5591;42.626;23.380;2024-03-02T20:02:55;93822.22;;;11.77;100.00
11077;BME280;5591;42.626;23.380;2024-03-02T20:05:22;93824.84;;;11.77;100.00
11077;BME280;5591;42.626;23.380;2024-03-02T20:07:49;93823.84;;;11.71;100.00
11077;BME280;5591;42.626;23.380;2024-03-02T20:10:16;93744.03;;;11.40;100.00
11077;BME280;5591;42.626;23.380;2024-03-02T20:12:44;93826.03;;;11.81;100.00
11077;BME280;5591;42.626;23.380;2024-03-02T20:15:11;93813.34;;;11.65;100.00
11077;BME280;5591;42.626;23.380;2024-03-02T20:17:38;93825.28;;;11.61;100.00
11077;BME280;5591;42.626;23.380;2024-03-02T20:20:06;93828.50;;;11.37;100.00
11077;BME280;5591;42.626;23.380;2024-03-02T20:22:34;93832.34;;;11.54;100.00
11077;BME280;5591;42.626;23.380;2024-03-02T20:25:00;93833.56;;;11.38;100.00
11077;BME280;5591;42.626;23.380;2024-03-02T20:27:27;93845.88;;;11.51;100.00
11077;BME280;5591;42.626;23.380;2024-03-02T20:29:55;93849.13;;;11.59;100.00
11077;BME280;5591;42.626;23.380;2024-03-02T20:32:22;93849.09;;;11.79;100.00
11077;BME280;5591;42.626;23.380;2024-03-02T20:34:49;93846.88;;;11.82;100.00
11077;BME280;5591;42.626;23.380;2024-03-02T20:37:16;93843.88;;;11.59;100.00
11077;BME280;5591;42.626;23.380;2024-03-02T20:39:48;93843.03;;;11.52;100.00
11077;BME280;5591;42.626;23.380;2024-03-02T20:42:16;93832.75;;;11.64;100.00
11077;BME280;5591;42.626;23.380;2024-03-02T20:44:42;93826.44;;;11.84;100.00
11077;BME280;5591;42.626;23.380;2024-03-02T20:47:10;93833.31;;;11.98;100.00
11077;BME280;5591;42.626;23.380;2024-03-02T20:49:37;93834.28;;;11.97;100.00
11077;BME280;5591;42.626;23.380;2024-03-02T20:52:07;93835.22;;;12.29;100.00
11077;BME280;5591;42.626;23.380;2024-03-02T20:54:34;93836.66;;;12.25;100.00
11077;BME280;5591;42.626;23.380;2024-03-02T20:57:01;93832.84;;;12.14;100.00
11077;BME280;5591;42.626;23.380;2024-03-02T20:59:31;93835.50;;;12.08;100.00
11077;BME280;5591;42.626;23.380;2024-03-02T21:01:57;93828.59;;;12.20;100.00
11077;BME280;5591;42.626;23.380;2024-03-02T21:04:25;93839.06;;;12.26;100.00
11077;BME280;5591;42.626;23.380;2024-03-02T21:06:53;93832.50;;;11.91;100.00
11077;BME280;5591;42.626;23.380;2024-03-02T21:09:20;93838.16;;;11.95;100.00
11077;BME280;5591;42.626;23.380;2024-03-02T21:11:46;93829.19;;;12.15;100.00
11077;BME280;5591;42.626;23.380;2024-03-02T21:14:14;93801.91;;;12.10;100.00
11077;BME280;5591;42.626;23.380;2024-03-02T21:16:40;93845.25;;;12.57;100.00
11077;BME280;5591;42.626;23.380;2024-03-02T21:19:07;93840.75;;;12.14;100.00
11077;BME280;5591;42.626;23.380;2024-03-02T21:21:36;93838.16;;;12.01;100.00
11077;BME280;5591;42.626;23.380;2024-03-02T21:24:05;93836.50;;;12.13;100.00
11077;BME280;5591;42.626;23.380;2024-03-02T21:26:37;93832.41;;;12.30;100.00
11077;BME280;5591;42.626;23.380;2024-03-02T21:29:03;93830.72;;;11.66;100.00
11077;BME280;5591;42.626;23.380;2024-03-02T21:31:30;93818.91;;;12.01;100.00
11077;BME280;5591;42.626;23.380;2024-03-02T21:33:57;93828.69;;;12.44;100.00
11077;BME280;5591;42.626;23.380;2024-03-02T21:36:23;93833.09;;;12.50;100.00
11077;BME280;5591;42.626;23.380;2024-03-02T21:38:52;93829.81;;;12.67;100.00
11077;BME280;5591;42.626;23.380;2024-03-02T21:41:18;93824.66;;;12.79;100.00
11077;BME280;5591;42.626;23.380;2024-03-02T21:43:45;93828.72;;;12.81;100.00
11077;BME280;5591;42.626;23.380;2024-03-02T21:46:12;93826.94;;;12.69;100.00
11077;BME280;5591;42.626;23.380;2024-03-02T21:48:38;93822.59;;;12.43;100.00
11077;BME280;5591;42.626;23.380;2024-03-02T21:51:05;93817.19;;;12.38;100.00
11077;BME280;5591;42.626;23.380;2024-03-02T21:53:32;93835.22;;;12.29;100.00
11077;BME280;5591;42.626;23.380;2024-03-02T21:56:00;93836.25;;;12.28;100.00
11077;BME280;5591;42.626;23.380;2024-03-02T21:58:27;93845.34;;;12.25;100.00
11077;BME280;5591;42.626;23.380;2024-03-02T22:00:54;93840.44;;;11.78;100.00
11077;BME280;5591;42.626;23.380;2024-03-02T22:03:20;93832.34;;;11.73;100.00
11077;BME280;5591;42.626;23.380;2024-03-02T22:05:47;93851.75;;;11.59;100.00
11077;BME280;5591;42.626;23.380;2024-03-02T22:08:14;93842.66;;;11.55;100.00
11077;BME280;5591;42.626;23.380;2024-03-02T22:10:41;93849.94;;;11.79;100.00
11077;BME280;5591;42.626;23.380;2024-03-02T22:13:09;93858.44;;;11.75;100.00
11077;BME280;5591;42.626;23.380;2024-03-02T22:15:36;93856.97;;;11.85;100.00
11077;BME280;5591;42.626;23.380;2024-03-02T22:18:03;93856.19;;;11.85;100.00
11077;BME280;5591;42.626;23.380;2024-03-02T22:20:29;93854.56;;;11.84;100.00
11077;BME280;5591;42.626;23.380;2024-03-02T22:22:56;93849.31;;;11.84;100.00
11077;BME280;5591;42.626;23.380;2024-03-02T22:25:23;93852.09;;;11.95;100.00
11077;BME280;5591;42.626;23.380;2024-03-02T22:27:49;93856.56;;;11.95;100.00
11077;BME280;5591;42.626;23.380;2024-03-02T22:30:22;93845.84;;;11.96;100.00
11077;BME280;5591;42.626;23.380;2024-03-02T22:32:49;93856.53;;;12.08;100.00
11077;BME280;5591;42.626;23.380;2024-03-02T22:35:16;93849.28;;;12.03;100.00
11077;BME280;5591;42.626;23.380;2024-03-02T22:37:42;93847.63;;;12.09;100.00
11077;BME280;5591;42.626;23.380;2024-03-02T22:40:09;93845.22;;;12.01;100.00
11077;BME280;5591;42.626;23.380;2024-03-02T22:42:37;93860.38;;;12.05;100.00
11077;BME280;5591;42.626;23.380;2024-03-02T22:45:05;93857.56;;;12.00;100.00
11077;BME280;5591;42.626;23.380;2024-03-02T22:47:33;93856.78;;;11.87;100.00
11077;BME280;5591;42.626;23.380;2024-03-02T22:50:00;93867.53;;;11.72;100.00
11077;BME280;5591;42.626;23.380;2024-03-02T22:52:27;93837.59;;;11.47;100.00
11077;BME280;5591;42.626;23.380;2024-03-02T22:54:53;93855.16;;;11.40;100.00
11077;BME280;5591;42.626;23.380;2024-03-02T22:57:20;93857.97;;;11.39;100.00
11077;BME280;5591;42.626;23.380;2024-03-02T22:59:48;93859.81;;;11.38;100.00
11077;BME280;5591;42.626;23.380;2024-03-02T23:02:15;93860.41;;;11.14;100.00
11077;BME280;5591;42.626;23.380;2024-03-02T23:04:43;93865.66;;;11.14;100.00
11077;BME280;5591;42.626;23.380;2024-03-02T23:07:10;93854.50;;;10.93;100.00
11077;BME280;5591;42.626;23.380;2024-03-02T23:09:37;93853.50;;;10.87;100.00
11077;BME280;5591;42.626;23.380;2024-03-02T23:12:04;93856.13;;;11.00;100.00
11077;BME280;5591;42.626;23.380;2024-03-02T23:14:31;93864.59;;;10.96;100.00
11077;BME280;5591;42.626;23.380;2024-03-02T23:16:57;93849.25;;;10.86;100.00
11077;BME280;5591;42.626;23.380;2024-03-02T23:19:24;93855.91;;;10.76;100.00
11077;BME280;5591;42.626;23.380;2024-03-02T23:21:52;93865.38;;;10.70;100.00